createdAt,value
2022-11-18T00:03:33.662Z,100
2022-11-18T00:08:31.857Z,100
2022-11-18T00:13:30.141Z,100
2022-11-18T00:18:28.302Z,100
2022-11-18T00:23:26.323Z,100
2022-11-18T00:28:24.232Z,100
2022-11-18T00:33:22.459Z,100
2022-11-18T00:38:21.159Z,100
2022-11-18T00:43:19.454Z,100
2022-11-18T00:48:17.475Z,100
2022-11-18T00:53:15.961Z,100
2022-11-18T00:58:14.249Z,100
2022-11-18T01:03:12.581Z,100
2022-11-18T01:08:10.823Z,100
2022-11-18T01:13:09.560Z,100
2022-11-18T01:18:07.850Z,100
2022-11-18T01:23:06.180Z,100
2022-11-18T01:28:04.396Z,100
2022-11-18T01:33:02.833Z,100
2022-11-18T01:38:01.166Z,100
2022-11-18T01:42:59.413Z,100
2022-11-18T01:47:57.636Z,100
2022-11-18T01:52:55.701Z,100
2022-11-18T01:57:53.702Z,100
2022-11-18T02:02:51.831Z,100
2022-11-18T02:07:50.142Z,100
2022-11-18T02:12:48.399Z,100
2022-11-18T02:17:46.525Z,100
2022-11-18T02:22:44.608Z,100
2022-11-18T02:27:42.840Z,100
2022-11-18T02:32:40.779Z,100
2022-11-18T02:37:38.953Z,100
2022-11-18T02:42:37.278Z,100
2022-11-18T02:47:35.564Z,100
2022-11-18T02:52:33.950Z,100
2022-11-18T02:57:32.174Z,100
2022-11-18T03:02:30.328Z,100
2022-11-18T03:07:28.554Z,100
2022-11-18T03:12:26.694Z,100
2022-11-18T03:17:25.084Z,100
2022-11-18T03:22:23.315Z,100
2022-11-18T03:27:21.517Z,100
2022-11-18T03:32:19.654Z,100
2022-11-18T03:37:17.890Z,100
2022-11-18T03:42:16.235Z,100
2022-11-18T03:47:14.841Z,100
2022-11-18T03:52:12.955Z,100
2022-11-18T03:57:11.049Z,100
2022-11-18T04:02:09.335Z,100
2022-11-18T04:07:07.566Z,100
2022-11-18T04:12:05.638Z,100
2022-11-18T04:17:03.932Z,100
2022-11-18T04:22:02.252Z,100
2022-11-18T04:27:00.445Z,100
2022-11-18T04:31:58.966Z,100
2022-11-18T04:36:57.243Z,100
2022-11-18T04:41:55.583Z,100
2022-11-18T04:46:53.563Z,100
2022-11-18T04:51:51.826Z,100
2022-11-18T04:56:50.081Z,100
2022-11-18T05:01:47.549Z,100
2022-11-18T05:06:45.503Z,100
2022-11-18T05:11:42.690Z,100
2022-11-18T05:16:40.724Z,100
2022-11-18T05:21:38.843Z,100
2022-11-18T05:26:37.206Z,100
2022-11-18T05:31:35.492Z,100
2022-11-18T05:36:33.694Z,100
2022-11-18T05:41:32.459Z,100
2022-11-18T05:46:30.975Z,100
2022-11-18T05:51:29.504Z,100
2022-11-18T05:56:27.979Z,100
2022-11-18T06:01:26.361Z,100
2022-11-18T06:06:24.480Z,100
2022-11-18T06:11:23.302Z,100
2022-11-18T06:16:22.142Z,100
2022-11-18T06:21:21.572Z,100
2022-11-18T06:26:20.986Z,99.3
2022-11-18T06:31:19.485Z,100
2022-11-18T06:36:17.501Z,100
2022-11-18T06:41:16.052Z,100
2022-11-18T06:46:14.732Z,98.9
2022-11-18T06:51:12.927Z,98.6
2022-11-18T06:56:10.492Z,100
2022-11-18T07:01:08.867Z,99
2022-11-18T07:06:06.978Z,98.2
2022-11-18T07:11:06.565Z,94.4
2022-11-18T07:16:05.921Z,90.7
2022-11-18T07:21:05.717Z,87.4
2022-11-18T07:26:03.814Z,88.9
2022-11-18T07:31:01.997Z,86.3
2022-11-18T07:36:01.932Z,82
2022-11-18T07:41:02.187Z,76.7
2022-11-18T07:46:01.313Z,74.3
2022-11-18T07:50:59.961Z,74.4
2022-11-18T07:55:58.548Z,71.3
2022-11-18T08:00:56.266Z,72.5
2022-11-18T08:05:53.414Z,73.8
2022-11-18T08:10:51.809Z,75.5
2022-11-18T08:15:48.545Z,79.9
2022-11-18T08:20:46.336Z,78.4
2022-11-18T08:25:45.601Z,76.7
2022-11-18T08:30:43.961Z,76.1
2022-11-18T08:35:41.820Z,76.2
2022-11-18T08:40:42.025Z,71.5
2022-11-18T08:45:40.722Z,70.8
2022-11-18T08:50:41.073Z,66.1
2022-11-18T08:55:42.577Z,57.7
2022-11-18T09:00:41.419Z,57.2
2022-11-18T09:05:37.270Z,62.7
2022-11-18T09:10:34.814Z,65.1
2022-11-18T09:15:31.667Z,65.3
2022-11-18T09:20:29.962Z,66.6
2022-11-18T09:25:30.573Z,60.2
2022-11-18T09:30:32.116Z,57
2022-11-18T09:35:33.425Z,51.4
2022-11-18T09:40:31.218Z,50.6
2022-11-18T09:45:31.702Z,46.8
2022-11-18T09:55:24.188Z,52
2022-11-18T10:00:22.296Z,50
2022-11-18T10:05:23.694Z,44.5
2022-11-18T10:10:19.104Z,47.3
2022-11-18T10:15:18.086Z,43.5
2022-11-18T10:20:16.159Z,43.6
2022-11-18T10:25:11.004Z,49.6
2022-11-18T10:30:07.783Z,52.4
2022-11-18T10:35:08.585Z,42.9
2022-11-18T10:40:07.736Z,42.7
2022-11-18T10:45:05.739Z,43.8
2022-11-18T10:50:04.941Z,43
2022-11-18T10:55:01.056Z,45.5
2022-11-18T10:59:57.755Z,47.8
2022-11-18T11:04:54.512Z,49.6
2022-11-18T11:09:52.043Z,50.3
2022-11-18T11:14:49.651Z,53.1
2022-11-18T11:19:47.486Z,52.6
2022-11-18T11:24:45.510Z,53
2022-11-18T11:29:43.134Z,54.2
2022-11-18T11:34:40.555Z,54.9
2022-11-18T11:39:38.275Z,55.5
2022-11-18T11:44:36.382Z,56
2022-11-18T11:49:34.221Z,59.3
2022-11-18T11:54:32.337Z,59.1
2022-11-18T11:59:30.630Z,60.6
2022-11-18T12:04:28.727Z,60.4
2022-11-18T12:09:27.645Z,58
2022-11-18T12:14:26.149Z,58.3
2022-11-18T12:19:23.940Z,60.2
2022-11-18T12:24:21.466Z,61.6
2022-11-18T12:29:19.539Z,62.4
2022-11-18T12:34:16.885Z,64.3
2022-11-18T12:39:14.787Z,66.6
2022-11-18T12:44:12.498Z,68.5
2022-11-18T12:49:10.512Z,68.2
2022-11-18T12:54:12.602Z,70.1
2022-11-18T12:59:06.533Z,68.7
2022-11-18T13:04:04.696Z,69.6
2022-11-18T13:09:02.947Z,68.5
2022-11-18T13:14:01.284Z,68.9
2022-11-18T13:18:59.386Z,69.2
2022-11-18T13:24:00.608Z,70.2
2022-11-18T13:28:55.250Z,70.7
2022-11-18T13:33:53.471Z,71.2
2022-11-18T13:38:51.532Z,70.7
2022-11-18T13:43:53.811Z,71.8
2022-11-18T13:48:47.959Z,72.9
2022-11-18T13:53:46.049Z,74.3
2022-11-18T13:59:10.767Z,74.7
2022-11-18T14:03:42.006Z,75
2022-11-18T14:08:40.075Z,75.2
2022-11-18T14:13:38.183Z,76.2
2022-11-18T14:18:36.113Z,76.3
2022-11-18T14:23:34.646Z,77.7
2022-11-18T14:28:32.555Z,78.7
2022-11-18T14:33:30.606Z,78.6
2022-11-18T14:38:44.010Z,78.4
2022-11-18T14:43:26.874Z,78.8
2022-11-18T14:48:28.402Z,80.6
2022-11-18T14:53:37.306Z,83.4
2022-11-18T14:58:32.923Z,84.4
2022-11-18T15:03:30.916Z,84.5
2022-11-18T15:08:29.309Z,86.4
2022-11-18T15:13:27.349Z,86.3
2022-11-18T15:18:25.602Z,84.3
2022-11-18T15:23:28.554Z,84
2022-11-18T15:28:22.187Z,84
2022-11-18T15:33:20.205Z,84.7
2022-11-18T15:38:18.394Z,85.6
2022-11-18T15:43:16.545Z,85.6
2022-11-18T15:48:14.721Z,85.3
2022-11-18T15:53:12.979Z,86
2022-11-18T15:58:11.036Z,86.2
2022-11-18T16:03:08.996Z,87.3
2022-11-18T16:08:06.956Z,90.2
2022-11-18T16:13:04.963Z,92.1
2022-11-18T16:18:03.069Z,93.6
2022-11-18T16:23:01.039Z,94.8
2022-11-18T16:28:03.772Z,95.2
2022-11-18T16:32:57.308Z,95.8
2022-11-18T16:37:55.493Z,96.9
2022-11-18T16:42:53.884Z,98.3
2022-11-18T16:47:51.696Z,98
2022-11-18T16:52:50.072Z,98.3
2022-11-18T16:57:48.295Z,97.5
2022-11-18T17:02:46.299Z,97.4
2022-11-18T17:07:44.486Z,97.5
2022-11-18T17:12:42.859Z,97.4
2022-11-18T17:17:40.970Z,96.7
2022-11-18T17:22:38.965Z,96.8
2022-11-18T17:27:37.229Z,96.8
2022-11-18T17:32:35.520Z,96.1
2022-11-18T17:37:33.856Z,95.7
2022-11-18T17:42:32.664Z,95
2022-11-18T17:47:31.243Z,95.1
2022-11-18T17:52:29.802Z,95.5
2022-11-18T17:57:28.140Z,94.9
2022-11-18T18:02:26.568Z,95.2
2022-11-18T18:07:25.181Z,94.7
2022-11-18T18:12:23.349Z,94
2022-11-18T18:17:21.490Z,94.1
2022-11-18T18:22:20.365Z,93.9
2022-11-18T18:27:18.566Z,93.3
2022-11-18T18:32:17.036Z,93
2022-11-18T18:37:15.514Z,93.3
2022-11-18T18:42:13.964Z,92.7
2022-11-18T18:47:12.606Z,92.7
2022-11-18T18:52:10.972Z,92.8
2022-11-18T18:57:09.382Z,93.4
2022-11-18T19:02:07.693Z,93.4
2022-11-18T19:07:05.906Z,93.7
2022-11-18T19:12:04.259Z,94.7
2022-11-18T19:17:09.890Z,94.9
2022-11-18T19:22:02.270Z,94.4
2022-11-18T19:27:01.056Z,94.4
2022-11-18T19:31:59.329Z,93.4
2022-11-18T19:36:57.724Z,93.7
2022-11-18T19:41:56.591Z,93.4
2022-11-18T19:46:54.869Z,93.2
2022-11-18T19:51:53.227Z,93.3
2022-11-18T19:56:51.424Z,93.1
2022-11-18T20:01:49.409Z,92.9
2022-11-18T20:06:47.808Z,93.1
2022-11-18T20:11:46.126Z,93.8
2022-11-18T20:16:44.309Z,94.6
2022-11-18T20:21:42.572Z,93.7
2022-11-18T20:26:40.723Z,93.7
2022-11-18T20:31:39.042Z,93.8
2022-11-18T20:36:37.020Z,94.5
2022-11-18T20:41:35.343Z,95.4
2022-11-18T20:46:33.756Z,95.5
2022-11-18T20:51:32.615Z,96.1
2022-11-18T20:56:30.793Z,97.3
2022-11-18T21:01:28.955Z,98.5
2022-11-18T21:06:27.001Z,98.6
2022-11-18T21:11:25.106Z,98.8
2022-11-18T21:16:23.282Z,99.2
2022-11-18T21:21:21.538Z,99
2022-11-18T21:26:19.693Z,99.3
2022-11-18T21:31:21.994Z,99.6
2022-11-18T21:36:15.807Z,99.6
2022-11-18T21:41:14.001Z,99.9
2022-11-18T21:46:12.369Z,99.5
2022-11-18T21:51:10.570Z,99.9
2022-11-18T21:56:08.808Z,100
2022-11-18T22:01:07.064Z,100
2022-11-18T22:06:05.202Z,100
2022-11-18T22:11:03.458Z,100
2022-11-18T22:16:01.618Z,100
2022-11-18T22:20:59.325Z,100
2022-11-18T22:25:57.515Z,100
2022-11-18T22:30:55.732Z,100
2022-11-18T22:35:53.941Z,100
2022-11-18T22:40:52.096Z,99.7
2022-11-18T22:45:50.479Z,98.9
2022-11-18T22:50:48.928Z,97.8
2022-11-18T22:55:47.221Z,97.3
2022-11-18T23:00:45.380Z,96.6
2022-11-18T23:05:43.753Z,96.7
2022-11-18T23:10:42.058Z,96.5
2022-11-18T23:15:40.384Z,96.7
2022-11-18T23:20:38.477Z,96.1
2022-11-18T23:25:36.558Z,96.9
2022-11-18T23:30:34.354Z,96.5
2022-11-18T23:35:32.392Z,97.3
2022-11-18T23:40:30.415Z,97.5
2022-11-18T23:45:28.427Z,98.3
2022-11-18T23:50:26.481Z,99
2022-11-18T23:55:24.417Z,99.7
